Caribe Alliance — WDC9383 — position and weather

sailwx.info

Track history (hours):
 
Tides and Currents Weather Stations Pressure Air Temp Water Temp Dewpoint Dewpoint Depression Visibility Wind Speed Wind Dir Waves Ship Positions

Caribe Alliance

Owner: Gulf Caribe Maritime, Redondo Beach, CA. More information available from US FCC via Universal Licensing System and Coast Guard Vessel Documentation Center.

Last reported at 2014-Nov-26 12:23 UTC. Time now 2014-Nov-27 10:38 UTC.
Position N 33°51' W 118°24'.

Length 19 m; draft 3.3 m.

Type: Port tender. MMSI: 367101530.

Date/timePositionNaut miles runAvg speedWind from/ knotsBaromVisibWave heightAir tempDewpointWater temp
2014-Nov-26 12:23N 33°51' W 118°24'5 5.6
2014-Nov-26 11:33N 33°54' W 118°27'0 0.1
2014-Nov-26 10:29N 33°54' W 118°27'0 0.0
2014-Nov-26 09:17N 33°54' W 118°27'0 0.0
2014-Nov-26 01:26N 33°54' W 118°27'0 0.0
2014-Nov-26 00:32N 33°54' W 118°27'0 0.0
2014-Nov-25 23:32N 33°54' W 118°27'0 0.0
2014-Nov-25 22:08N 33°54' W 118°27'0 0.0
2014-Nov-25 21:26N 33°54' W 118°27'0 0.3
2014-Nov-25 20:33N 33°54' W 118°27'0 0.2
2014-Nov-25 19:32N 33°54' W 118°27'0 0.3
2014-Nov-25 18:33N 33°54' W 118°27'0 0.2
2014-Nov-25 17:33N 33°54' W 118°27'2 1.8
2014-Nov-25 16:33N 33°53' W 118°26'3 0.4
2014-Nov-25 08:05N 33°51' W 118°24'5 8.3
2014-Nov-25 07:31N 33°54' W 118°27'0 0.1
2014-Nov-25 06:32N 33°54' W 118°27'0 0.1
2014-Nov-25 03:33N 33°54' W 118°27'0 0.0
2014-Nov-25 00:21N 33°54' W 118°27'0 0.0
2014-Nov-24 23:33N 33°54' W 118°27'0 0.0
2014-Nov-24 21:15N 33°54' W 118°27'0 0.0
2014-Nov-24 20:30N 33°54' W 118°27'0 0.0
2014-Nov-24 19:33N 33°54' W 118°27'0 0.0
2014-Nov-24 18:33N 33°54' W 118°27'0 0.0
2014-Nov-24 12:33N 33°54' W 118°27'0 0.0
2014-Nov-24 04:33N 33°54' W 118°27'0 0.0
2014-Nov-24 03:26N 33°54' W 118°27'0 0.0
2014-Nov-24 02:33N 33°54' W 118°27'0 0.0
2014-Nov-24 01:34N 33°54' W 118°27'0 0.0
2014-Nov-24 00:33N 33°54' W 118°27'0 0.0
2014-Nov-23 23:20N 33°54' W 118°27'0 0.0
2014-Nov-23 22:24N 33°54' W 118°27'0 0.0
2014-Nov-23 21:33N 33°54' W 118°27'0 0.0
2014-Nov-23 20:33N 33°54' W 118°27'0 0.0
2014-Nov-23 19:33N 33°54' W 118°27'0 0.4
2014-Nov-23 18:33N 33°54' W 118°27'0 0.1
2014-Nov-23 17:31N 33°54' W 118°27'0 0.2
2014-Nov-23 16:33N 33°54' W 118°27'4 1.9
2014-Nov-23 14:33N 33°51' W 118°26'2 0.0
2014-Nov-21 21:04N 33°50' W 118°24'5 7.1
2014-Nov-21 20:24N 33°54' W 118°27'0 0.1
2014-Nov-21 19:32N 33°54' W 118°27'0 0.1
2014-Nov-21 18:14N 33°54' W 118°27'0 0.4
2014-Nov-21 17:24N 33°54' W 118°27'0 0.0
2014-Nov-21 16:33N 33°54' W 118°27'0 0.0
2014-Nov-21 14:30N 33°54' W 118°27'0 0.0
2014-Nov-21 13:33N 33°54' W 118°27'0 0.0
2014-Nov-21 12:33N 33°54' W 118°27'0 0.0
2014-Nov-21 11:33N 33°54' W 118°27'0 0.0
2014-Nov-21 10:15N 33°54' W 118°27'0 0.0
2014-Nov-21 09:33N 33°54' W 118°27'0 0.0
2014-Nov-21 08:33N 33°54' W 118°27'0 0.0
2014-Nov-21 07:09N 33°54' W 118°27'0 0.0
2014-Nov-21 06:33N 33°54' W 118°27'0 0.0
2014-Nov-21 03:21N 33°54' W 118°27'0 0.0
2014-Nov-20 22:06N 33°54' W 118°27'0 0.0
2014-Nov-20 21:33N 33°54' W 118°27'0 0.0
2014-Nov-20 20:30N 33°54' W 118°27'0 0.0
2014-Nov-20 19:33N 33°54' W 118°27'0 0.0
2014-Nov-20 18:33N 33°54' W 118°27'0 0.0
2014-Nov-20 17:30N 33°54' W 118°27'0 0.0
2014-Nov-20 15:33N 33°54' W 118°27'0 0.0
2014-Nov-20 13:03N 33°54' W 118°27'0 0.0
2014-Nov-20 12:33N 33°54' W 118°27'0 0.0
2014-Nov-20 11:33N 33°54' W 118°27'0 0.0
2014-Nov-20 07:33N 33°54' W 118°27'0 0.0
2014-Nov-20 01:33N 33°54' W 118°27'0 0.0
2014-Nov-20 00:30N 33°54' W 118°27'0 0.0
2014-Nov-19 21:30N 33°54' W 118°27'0 0.0
2014-Nov-19 20:30N 33°54' W 118°27'0 0.2
2014-Nov-19 19:21N 33°54' W 118°27'0 0.2
2014-Nov-19 18:33N 33°54' W 118°27'0 0.2
2014-Nov-19 17:33N 33°54' W 118°27'3 0.8
2014-Nov-19 14:23N 33°52' W 118°26'  
2014-Nov-16 18:26N 33°54' W 118°27'0 0.0
2014-Nov-16 17:26N 33°54' W 118°27'  
Track history (hours):
 
Tides and Currents Weather Stations Pressure Air Temp Water Temp Dewpoint Dewpoint Depression Visibility Wind Speed Wind Dir Waves Ship Positions

Caribe Alliance

Owner: Gulf Caribe Maritime, Redondo Beach, CA. More information available from US FCC via Universal Licensing System and Coast Guard Vessel Documentation Center.

Last reported at 2014-Nov-26 12:23 UTC. Time now 2014-Nov-27 10:38 UTC.
Position N 33°51' W 118°24'.

Length 19 m; draft 3.3 m.

Type: Port tender. MMSI: 367101530.

Date/timePositionNaut miles runAvg speedWind from/ knotsBaromVisibWave heightAir tempDewpointWater temp
2014-Nov-26 12:23N 33°51' W 118°24'5 5.6
2014-Nov-26 11:33N 33°54' W 118°27'0 0.1
2014-Nov-26 10:29N 33°54' W 118°27'0 0.0
2014-Nov-26 09:17N 33°54' W 118°27'0 0.0
2014-Nov-26 01:26N 33°54' W 118°27'0 0.0
2014-Nov-26 00:32N 33°54' W 118°27'0 0.0
2014-Nov-25 23:32N 33°54' W 118°27'0 0.0
2014-Nov-25 22:08N 33°54' W 118°27'0 0.0
2014-Nov-25 21:26N 33°54' W 118°27'0 0.3
2014-Nov-25 20:33N 33°54' W 118°27'0 0.2
2014-Nov-25 19:32N 33°54' W 118°27'0 0.3
2014-Nov-25 18:33N 33°54' W 118°27'0 0.2
2014-Nov-25 17:33N 33°54' W 118°27'2 1.8
2014-Nov-25 16:33N 33°53' W 118°26'3 0.4
2014-Nov-25 08:05N 33°51' W 118°24'5 8.3
2014-Nov-25 07:31N 33°54' W 118°27'0 0.1
2014-Nov-25 06:32N 33°54' W 118°27'0 0.1
2014-Nov-25 03:33N 33°54' W 118°27'0 0.0
2014-Nov-25 00:21N 33°54' W 118°27'0 0.0
2014-Nov-24 23:33N 33°54' W 118°27'0 0.0
2014-Nov-24 21:15N 33°54' W 118°27'0 0.0
2014-Nov-24 20:30N 33°54' W 118°27'0 0.0
2014-Nov-24 19:33N 33°54' W 118°27'0 0.0
2014-Nov-24 18:33N 33°54' W 118°27'0 0.0
2014-Nov-24 12:33N 33°54' W 118°27'0 0.0
2014-Nov-24 04:33N 33°54' W 118°27'0 0.0
2014-Nov-24 03:26N 33°54' W 118°27'0 0.0
2014-Nov-24 02:33N 33°54' W 118°27'0 0.0
2014-Nov-24 01:34N 33°54' W 118°27'0 0.0
2014-Nov-24 00:33N 33°54' W 118°27'0 0.0
2014-Nov-23 23:20N 33°54' W 118°27'0 0.0
2014-Nov-23 22:24N 33°54' W 118°27'0 0.0
2014-Nov-23 21:33N 33°54' W 118°27'0 0.0
2014-Nov-23 20:33N 33°54' W 118°27'0 0.0
2014-Nov-23 19:33N 33°54' W 118°27'0 0.4
2014-Nov-23 18:33N 33°54' W 118°27'0 0.1
2014-Nov-23 17:31N 33°54' W 118°27'0 0.2
2014-Nov-23 16:33N 33°54' W 118°27'4 1.9
2014-Nov-23 14:33N 33°51' W 118°26'2 0.0
2014-Nov-21 21:04N 33°50' W 118°24'5 7.1
2014-Nov-21 20:24N 33°54' W 118°27'0 0.1
2014-Nov-21 19:32N 33°54' W 118°27'0 0.1
2014-Nov-21 18:14N 33°54' W 118°27'0 0.4
2014-Nov-21 17:24N 33°54' W 118°27'0 0.0
2014-Nov-21 16:33N 33°54' W 118°27'0 0.0
2014-Nov-21 14:30N 33°54' W 118°27'0 0.0
2014-Nov-21 13:33N 33°54' W 118°27'0 0.0
2014-Nov-21 12:33N 33°54' W 118°27'0 0.0
2014-Nov-21 11:33N 33°54' W 118°27'0 0.0
2014-Nov-21 10:15N 33°54' W 118°27'0 0.0
2014-Nov-21 09:33N 33°54' W 118°27'0 0.0
2014-Nov-21 08:33N 33°54' W 118°27'0 0.0
2014-Nov-21 07:09N 33°54' W 118°27'0 0.0
2014-Nov-21 06:33N 33°54' W 118°27'0 0.0
2014-Nov-21 03:21N 33°54' W 118°27'0 0.0
2014-Nov-20 22:06N 33°54' W 118°27'0 0.0
2014-Nov-20 21:33N 33°54' W 118°27'0 0.0
2014-Nov-20 20:30N 33°54' W 118°27'0 0.0
2014-Nov-20 19:33N 33°54' W 118°27'0 0.0
2014-Nov-20 18:33N 33°54' W 118°27'0 0.0
2014-Nov-20 17:30N 33°54' W 118°27'0 0.0
2014-Nov-20 15:33N 33°54' W 118°27'0 0.0
2014-Nov-20 13:03N 33°54' W 118°27'0 0.0
2014-Nov-20 12:33N 33°54' W 118°27'0 0.0
2014-Nov-20 11:33N 33°54' W 118°27'0 0.0
2014-Nov-20 07:33N 33°54' W 118°27'0 0.0
2014-Nov-20 01:33N 33°54' W 118°27'0 0.0
2014-Nov-20 00:30N 33°54' W 118°27'0 0.0
2014-Nov-19 21:30N 33°54' W 118°27'0 0.0
2014-Nov-19 20:30N 33°54' W 118°27'0 0.2
2014-Nov-19 19:21N 33°54' W 118°27'0 0.2
2014-Nov-19 18:33N 33°54' W 118°27'0 0.2
2014-Nov-19 17:33N 33°54' W 118°27'3 0.8
2014-Nov-19 14:23N 33°52' W 118°26'  
2014-Nov-16 18:26N 33°54' W 118°27'0 0.0
2014-Nov-16 17:26N 33°54' W 118°27'  

Dump ship's entire track history